Fayetteville Regional Grannis Field
KFAY : now visible

Airfield :











YOU CAN JOIN US ON...

 
LOGIN :

Register | Disclaimer

   EN    FR    IT 

 









Legend :    VFR   Marginal VFR   IFR   Intensive IFR   Very Intensive IFR
Visi :
Ceiling :
>= 8 km
>= 3000ft
5 to 8 km
1000 to 3000 ft
1500m to 5 km
500 to 1000 ft
800 to 1500m
200 to 500 ft
< 800m
< 200 ft
Symbols :   Thunderstorms  Fog  Heavy snow  Heavy precipitations  Wind > 20 kt







- Airport Elevation : 189 ft
- IATA code : FAY


KFAY - Fayetteville Regional Grannis Field

CURRENT METAR :
  • 201953Z VRB05KT 10SM FEW003 27/11 A3024 RMK AO2 SLP236 T02720106

EXPIRED METARs :
  • 201853Z 27006KT 10SM CLR 27/11 A3026 RMK AO2 SLP242 T02670106
  • 201753Z VRB03KT 10SM CLR 25/10 A3028 RMK AO2 SLP247 T02500100 10261 20139 58018

TAF KFAY
Valid from the 20 at 18:00 until the 21 at 18:00 UTC


201720Z 2018/2118 16004KT P6SM SKC
No reported NOTAMs for that airfield.



MET'MAP, your aeronautical weather chart ! - Copyright ORBIFLY December 2007 - Disclaimer

ORBIFLY MET'MAP TEAM :

Programming & Development : Alexandra Zaïnal
Concept & Development : Baudouin d'Aumeries
Co-Development & Prog : Marc-Olivier Méhu
Technical & hardware support : Manuel Goepfert

Contact : metmap@orbifly.com




SOURCES & CREDITS :

   NOAA       Earth
Advisory